Time;durP1;ratioP1;P1;durP2;ratioP2;P2;SDS_P1;SDS_P2;PMS_P1;PMS_P2;Temp;Humidity;BMP_temperature;BMP_pressure;BME280_temperature;BME280_humidity;BME280_pressure;Samples;Min_cycle;Max_cycle;Signal;HPM_P1;HPM_P2
2022/02/24 00:00:23;;;;;;;1.87;1.17;;;22.60;54.10;;;;;;5101917;28;20432;-80
2022/02/24 00:02:56;;;;;;;1.17;1.03;;;22.60;54.10;;;;;;5116050;28;20416;-80
2022/02/24 00:09:08;;;;;;;2.33;1.47;;;22.60;54.10;;;;;;5116387;28;20355;-80
2022/02/24 00:11:35;;;;;;;1.40;1.00;;;22.50;54.00;;;;;;5116264;28;20430;-80
2022/02/24 00:14:03;;;;;;;1.60;1.10;;;22.50;54.00;;;;;;5116233;28;20431;-80
2022/02/24 00:16:33;;;;;;;1.70;1.20;;;22.50;54.00;;;;;;5116837;28;20466;-80
2022/02/24 00:19:02;;;;;;;1.93;1.10;;;22.50;54.00;;;;;;5116431;28;20407;-80
2022/02/24 00:21:33;;;;;;;2.20;1.53;;;22.50;54.00;;;;;;5098378;28;20473;-80
2022/02/24 00:24:01;;;;;;;2.20;1.50;;;22.50;54.00;;;;;;5115733;28;20410;-80
2022/02/24 00:26:27;;;;;;;1.77;1.50;;;22.50;54.10;;;;;;5096558;28;20404;-80
2022/02/24 00:28:54;;;;;;;1.83;1.30;;;22.50;54.10;;;;;;5115794;28;20461;-80
2022/02/24 00:31:31;;;;;;;1.60;1.30;;;22.50;54.00;;;;;;5097919;28;20509;-80
2022/02/24 00:34:00;;;;;;;1.50;1.30;;;22.50;54.00;;;;;;5099068;28;20403;-80
2022/02/24 00:36:28;;;;;;;1.67;1.20;;;22.50;54.00;;;;;;5116801;28;20451;-80
2022/02/24 00:38:57;;;;;;;1.50;1.30;;;22.50;54.00;;;;;;5098198;28;20434;-80
2022/02/24 00:41:30;;;;;;;2.13;1.70;;;22.50;54.00;;;;;;5116661;28;20408;-80
2022/02/24 00:44:23;;;;;;;1.97;1.37;;;22.40;54.00;;;;;;5099390;28;20545;-80
2022/02/24 00:46:50;;;;;;;1.63;1.30;;;22.40;54.00;;;;;;5102019;28;20419;-80
2022/02/24 00:49:20;;;;;;;1.37;1.27;;;22.40;54.00;;;;;;5112088;28;20480;-81
2022/02/24 00:52:00;;;;;;;1.50;1.20;;;22.40;54.00;;;;;;5113870;28;20412;-80
2022/02/24 00:54:30;;;;;;;1.40;1.20;;;22.40;54.10;;;;;;5116026;28;20435;-80
2022/02/24 00:56:57;;;;;;;1.63;1.10;;;22.40;54.10;;;;;;5115167;28;20475;-80
2022/02/24 00:59:24;;;;;;;1.60;1.40;;;22.40;54.10;;;;;;5115409;28;20434;-80
2022/02/24 01:01:53;;;;;;;1.33;1.23;;;22.40;54.00;;;;;;5115497;28;20417;-80
2022/02/24 01:04:26;;;;;;;1.37;1.00;;;22.40;54.00;;;;;;5115647;28;20463;-80
2022/02/24 01:06:59;;;;;;;1.27;1.17;;;22.40;54.10;;;;;;5098562;28;20415;-80
2022/02/24 01:09:28;;;;;;;2.17;1.17;;;22.40;54.10;;;;;;5115589;28;20376;-80
2022/02/24 01:11:54;;;;;;;1.90;1.40;;;22.40;54.00;;;;;;5115447;28;20415;-80
2022/02/24 01:14:23;;;;;;;2.47;1.33;;;22.40;54.10;;;;;;5108676;28;20423;-80
2022/02/24 01:16:54;;;;;;;2.70;1.50;;;22.40;54.00;;;;;;5115155;28;20448;-81
2022/02/24 01:23:02;;;;;;;1.30;1.20;;;22.40;54.00;;;;;;5115807;28;20363;-80
2022/02/24 01:25:33;;;;;;;1.73;1.20;;;22.30;54.00;;;;;;5114186;28;20411;-80
2022/02/24 01:28:01;;;;;;;1.50;1.30;;;22.30;54.10;;;;;;5115942;28;20413;-80
2022/02/24 01:30:53;;;;;;;1.53;1.30;;;22.40;54.20;;;;;;5115682;28;20455;-80
2022/02/24 01:33:21;;;;;;;1.17;1.07;;;22.30;54.10;;;;;;5098600;28;20404;-80
2022/02/24 01:35:55;;;;;;;1.57;1.37;;;22.30;54.10;;;;;;5097884;28;20523;-80
2022/02/24 01:38:21;;;;;;;2.00;1.60;;;22.30;54.10;;;;;;5116146;28;20388;-80
2022/02/24 01:40:50;;;;;;;1.67;1.23;;;22.30;54.10;;;;;;5115542;28;20870;-80
2022/02/24 01:43:16;;;;;;;2.33;1.67;;;22.30;54.10;;;;;;5116264;28;20408;-80
2022/02/24 01:46:04;;;;;;;2.50;1.53;;;22.30;54.10;;;;;;5115966;28;20431;-80
2022/02/24 01:48:38;;;;;;;1.63;1.13;;;22.30;54.20;;;;;;5077423;28;20422;-80
2022/02/24 01:51:09;;;;;;;1.37;1.10;;;22.30;54.10;;;;;;5098104;28;20475;-80
2022/02/24 01:53:45;;;;;;;1.43;1.20;;;22.30;54.20;;;;;;5098838;28;20426;-80
2022/02/24 01:56:16;;;;;;;1.60;1.23;;;22.30;54.10;;;;;;5100337;28;20453;-80
2022/02/24 01:58:45;;;;;;;1.40;1.20;;;22.30;54.10;;;;;;5118846;28;20467;-80
2022/02/24 02:01:21;;;;;;;1.93;1.40;;;22.30;54.10;;;;;;5119307;28;20470;-80
2022/02/24 02:04:01;;;;;;;1.70;1.20;;;22.30;54.10;;;;;;5091207;28;20411;-80
2022/02/24 02:06:34;;;;;;;1.20;1.10;;;22.30;54.10;;;;;;5118593;28;20395;-80
2022/02/24 02:09:03;;;;;;;1.50;1.40;;;22.30;54.10;;;;;;5086779;28;20410;-80
2022/02/24 02:11:35;;;;;;;1.80;1.30;;;22.30;54.10;;;;;;5119087;28;20415;-80
2022/02/24 02:14:22;;;;;;;1.67;1.23;;;22.30;54.10;;;;;;5050823;28;20421;-81
2022/02/24 02:16:56;;;;;;;1.70;1.30;;;22.30;54.10;;;;;;5116196;28;20451;-80
2022/02/24 02:19:28;;;;;;;1.30;1.10;;;22.30;54.10;;;;;;5112456;28;20420;-80
2022/02/24 02:21:59;;;;;;;1.70;1.20;;;22.30;54.10;;;;;;5100098;28;20475;-80
2022/02/24 02:24:30;;;;;;;1.97;1.40;;;22.30;54.10;;;;;;5118517;28;20395;-80
2022/02/24 02:26:59;;;;;;;1.60;1.30;;;22.30;54.10;;;;;;5118255;28;20772;-80
2022/02/24 02:33:27;;;;;;;1.10;0.90;;;22.30;54.00;;;;;;5077389;28;20393;-80
2022/02/24 02:35:53;;;;;;;1.40;1.30;;;22.30;54.00;;;;;;5059522;28;20457;-80
2022/02/24 02:38:21;;;;;;;2.00;1.40;;;22.20;54.00;;;;;;5059121;28;20443;-80
2022/02/24 02:40:47;;;;;;;2.07;1.33;;;22.30;54.10;;;;;;5059639;28;20413;-80
2022/02/24 02:43:24;;;;;;;1.70;1.50;;;22.20;54.00;;;;;;5058642;28;20432;-80
2022/02/24 02:45:59;;;;;;;1.60;1.20;;;22.30;54.00;;;;;;5060255;28;20417;-80
2022/02/24 02:48:26;;;;;;;1.73;1.27;;;22.30;54.00;;;;;;5041065;28;20410;-80
2022/02/24 02:50:53;;;;;;;1.47;1.27;;;22.20;53.90;;;;;;5076405;28;20432;-80
2022/02/24 02:53:31;;;;;;;1.80;1.50;;;22.20;53.90;;;;;;5059342;28;20434;-80
2022/02/24 02:59:20;;;;;;;1.30;1.10;;;22.20;53.90;;;;;;5058463;28;20441;-80
2022/02/24 03:01:56;;;;;;;1.70;1.23;;;22.20;53.90;;;;;;5079767;28;20421;-80
2022/02/24 03:04:25;;;;;;;1.90;1.40;;;22.20;54.00;;;;;;5059530;28;20431;-81
2022/02/24 03:06:57;;;;;;;2.30;1.77;;;22.20;54.00;;;;;;5095366;28;20969;-81
2022/02/24 03:09:41;;;;;;;1.20;1.10;;;22.20;54.00;;;;;;5095476;28;20432;-80
2022/02/24 03:12:11;;;;;;;2.07;1.30;;;22.20;54.00;;;;;;5096161;28;20392;-80
2022/02/24 03:14:38;;;;;;;1.30;1.07;;;22.20;54.00;;;;;;5076028;28;20429;-80
2022/02/24 03:17:11;;;;;;;1.83;1.10;;;22.20;54.00;;;;;;5058750;28;20468;-80
2022/02/24 03:19:40;;;;;;;1.83;1.13;;;22.20;54.00;;;;;;5059583;28;20436;-80
2022/02/24 03:22:13;;;;;;;1.43;1.20;;;22.10;53.90;;;;;;5076027;28;20402;-80
2022/02/24 03:24:41;;;;;;;1.40;1.30;;;22.20;54.00;;;;;;5059286;28;20444;-80
2022/02/24 03:27:22;;;;;;;1.57;1.37;;;22.10;53.90;;;;;;5054214;28;20428;-80
2022/02/24 03:29:51;;;;;;;1.30;1.07;;;22.20;53.90;;;;;;5075695;28;20410;-80
2022/02/24 03:32:19;;;;;;;1.20;1.10;;;22.10;53.90;;;;;;5077155;28;20425;-80
2022/02/24 03:34:49;;;;;;;1.83;1.20;;;22.10;53.90;;;;;;5079185;28;20435;-80
2022/02/24 03:37:17;;;;;;;1.20;1.10;;;22.10;53.90;;;;;;5095519;28;20462;-80
2022/02/24 03:39:48;;;;;;;1.83;1.30;;;22.10;53.90;;;;;;5095594;28;20432;-80
2022/02/24 03:42:16;;;;;;;1.70;1.27;;;22.10;54.00;;;;;;5095423;28;20381;-80
2022/02/24 03:44:48;;;;;;;1.40;1.10;;;22.10;54.00;;;;;;5060185;28;20420;-80
2022/02/24 03:47:15;;;;;;;1.27;1.10;;;22.10;54.00;;;;;;5095223;28;20480;-80
2022/02/24 03:49:47;;;;;;;1.50;1.10;;;22.10;54.50;;;;;;5058306;28;20445;-80
2022/02/24 03:52:20;;;;;;;3.80;1.33;;;22.10;54.00;;;;;;5067580;28;20417;-80
2022/02/24 03:54:48;;;;;;;1.90;1.50;;;22.10;53.90;;;;;;5091638;28;20400;-80
2022/02/24 03:57:23;;;;;;;2.07;1.23;;;22.10;53.90;;;;;;5089460;28;20470;-80
2022/02/24 03:59:53;;;;;;;2.37;1.30;;;22.10;53.90;;;;;;5060254;28;20458;-80
2022/02/24 04:02:19;;;;;;;2.90;1.70;;;22.10;53.80;;;;;;5062212;28;20436;-80
2022/02/24 04:04:50;;;;;;;1.20;1.10;;;22.10;53.80;;;;;;5088356;28;20470;-80
2022/02/24 04:07:27;;;;;;;1.80;1.50;;;22.10;53.80;;;;;;5082633;28;20450;-80
2022/02/24 04:09:53;;;;;;;1.40;1.20;;;22.10;53.80;;;;;;5092365;28;20416;-80
2022/02/24 04:12:19;;;;;;;1.60;1.30;;;22.10;53.80;;;;;;5098706;28;20512;-80
2022/02/24 04:14:55;;;;;;;1.70;1.30;;;22.10;53.80;;;;;;5116644;28;20411;-80
2022/02/24 04:17:23;;;;;;;3.00;1.27;;;22.10;53.80;;;;;;5094042;28;20477;-80
2022/02/24 04:19:52;;;;;;;1.77;1.60;;;22.10;53.80;;;;;;5117016;28;20412;-80
2022/02/24 04:22:19;;;;;;;1.40;1.20;;;22.10;53.80;;;;;;5082559;28;20419;-80
2022/02/24 04:24:52;;;;;;;2.47;1.50;;;22.10;53.80;;;;;;5095821;28;20428;-80
2022/02/24 04:27:23;;;;;;;2.17;1.00;;;22.10;53.80;;;;;;5093314;28;20413;-80
2022/02/24 04:29:53;;;;;;;1.57;1.30;;;22.10;53.80;;;;;;5116369;28;20368;-80
2022/02/24 04:32:29;;;;;;;1.93;1.67;;;22.10;53.80;;;;;;5098679;28;20423;-80
2022/02/24 04:34:58;;;;;;;1.67;1.23;;;22.10;53.80;;;;;;5049720;28;20982;-80
2022/02/24 04:37:26;;;;;;;1.50;1.10;;;22.10;53.80;;;;;;5114762;28;20447;-80
2022/02/24 04:39:55;;;;;;;2.07;1.37;;;22.10;53.80;;;;;;5116218;28;20442;-80
2022/02/24 04:42:27;;;;;;;1.70;1.40;;;22.10;53.90;;;;;;5117077;28;20422;-80
2022/02/24 04:44:57;;;;;;;1.47;1.30;;;22.10;53.80;;;;;;5116626;28;20403;-80
2022/02/24 04:47:38;;;;;;;1.87;1.20;;;22.10;53.90;;;;;;5116350;28;20414;-80
2022/02/24 04:53:38;;;;;;;1.80;1.40;;;22.00;53.80;;;;;;5115926;28;20380;-80
2022/02/24 04:56:18;;;;;;;1.57;1.20;;;22.00;53.90;;;;;;5093744;28;20480;-80
2022/02/24 04:58:52;;;;;;;1.43;1.20;;;22.00;53.90;;;;;;5099351;28;20377;-80
2022/02/24 05:01:35;;;;;;;1.40;1.17;;;22.00;53.90;;;;;;5115785;28;20431;-79
2022/02/24 05:04:41;;;;;;;1.20;1.10;;;22.00;53.90;;;;;;5074305;28;20422;-80
2022/02/24 05:07:32;;;;;;;2.80;1.30;;;22.00;53.90;;;;;;5068463;28;20409;-79
2022/02/24 05:10:04;;;;;;;1.57;1.20;;;22.00;53.90;;;;;;5053420;28;20442;-79
2022/02/24 05:12:36;;;;;;;1.50;1.20;;;22.00;54.00;;;;;;5038483;28;20490;-79
2022/02/24 05:15:07;;;;;;;1.50;1.10;;;22.00;54.00;;;;;;5072586;28;20413;-79
2022/02/24 05:17:34;;;;;;;1.80;1.17;;;22.00;53.90;;;;;;5074361;28;20433;-80
2022/02/24 05:20:04;;;;;;;1.30;1.10;;;22.00;53.90;;;;;;5078269;28;20409;-80
2022/02/24 05:22:34;;;;;;;1.90;1.17;;;22.00;53.90;;;;;;5061757;28;20450;-80
2022/02/24 05:25:02;;;;;;;1.30;1.10;;;22.00;53.80;;;;;;5078120;28;20397;-81
2022/02/24 05:27:36;;;;;;;1.30;1.10;;;22.00;53.90;;;;;;5062097;28;20456;-81
2022/02/24 05:30:12;;;;;;;3.93;1.60;;;22.00;53.90;;;;;;5075956;28;20432;-81
2022/02/24 05:32:39;;;;;;;2.37;1.50;;;22.00;53.80;;;;;;5078070;28;20377;-81
2022/02/24 05:35:13;;;;;;;2.13;1.53;;;22.00;53.70;;;;;;5041756;28;20438;-81
2022/02/24 05:38:02;;;;;;;1.27;1.17;;;22.00;53.50;;;;;;5044372;28;20460;-80
2022/02/24 05:41:11;;;;;;;1.93;1.20;;;22.00;53.60;;;;;;5058479;28;20410;-81
2022/02/24 05:43:41;;;;;;;2.50;1.50;;;22.00;53.70;;;;;;5041005;28;20422;-81
2022/02/24 05:46:20;;;;;;;1.83;1.20;;;21.90;53.70;;;;;;5058387;28;20406;-81
2022/02/24 05:48:49;;;;;;;2.03;1.57;;;21.90;53.80;;;;;;5059990;28;20421;-81
2022/02/24 05:51:15;;;;;;;1.93;1.40;;;22.00;53.90;;;;;;5060351;28;20490;-81
2022/02/24 05:53:47;;;;;;;1.73;1.17;;;21.90;53.80;;;;;;5054846;28;20442;-80
2022/02/24 05:56:51;;;;;;;2.33;1.50;;;21.90;53.80;;;;;;5117832;28;20450;-80
2022/02/24 05:59:23;;;;;;;1.73;1.30;;;21.90;53.80;;;;;;5118226;28;20418;-80
2022/02/24 06:01:53;;;;;;;2.30;1.10;;;21.90;53.80;;;;;;5118824;28;20424;-83
2022/02/24 06:04:19;;;;;;;1.40;1.23;;;21.90;53.90;;;;;;5117681;28;20419;-82
2022/02/24 06:06:52;;;;;;;1.80;1.40;;;21.90;53.90;;;;;;5118153;28;20384;-82
2022/02/24 06:09:34;;;;;;;2.97;1.30;;;21.90;53.90;;;;;;5100154;28;20423;-82
2022/02/24 06:12:08;;;;;;;1.43;1.20;;;21.90;53.90;;;;;;5100836;28;20412;-81
2022/02/24 06:14:38;;;;;;;3.27;1.47;;;21.90;53.90;;;;;;5099617;28;20404;-82
2022/02/24 06:17:04;;;;;;;1.80;1.30;;;22.00;53.90;;;;;;5099244;28;20455;-82
2022/02/24 06:19:33;;;;;;;1.30;1.10;;;21.90;53.80;;;;;;5098642;28;20498;-82
2022/02/24 06:22:03;;;;;;;2.33;1.50;;;22.00;53.90;;;;;;5115857;28;20419;-82
2022/02/24 06:24:36;;;;;;;1.87;1.13;;;22.00;53.90;;;;;;5099373;28;20412;-81
2022/02/24 06:27:03;;;;;;;1.83;1.30;;;22.00;53.90;;;;;;5117942;28;20408;-81
2022/02/24 06:29:30;;;;;;;1.50;1.30;;;22.00;53.90;;;;;;5098498;28;20428;-81
2022/02/24 06:31:56;;;;;;;2.50;1.43;;;22.00;53.90;;;;;;5100488;28;20495;-81
2022/02/24 06:34:30;;;;;;;1.50;1.10;;;22.00;53.90;;;;;;5099269;28;20433;-81
2022/02/24 06:36:57;;;;;;;3.20;1.50;;;22.00;53.90;;;;;;5098898;28;20452;-81
2022/02/24 06:39:27;;;;;;;2.57;1.30;;;22.00;53.80;;;;;;5099261;28;20432;-81
2022/02/24 06:41:56;;;;;;;1.30;1.10;;;22.00;53.90;;;;;;5116447;28;20499;-81
2022/02/24 06:44:23;;;;;;;2.60;1.20;;;22.00;53.80;;;;;;5116569;28;20422;-81
2022/02/24 06:46:52;;;;;;;1.70;1.40;;;22.00;53.80;;;;;;5115186;28;20420;-82
2022/02/24 06:49:20;;;;;;;1.40;1.10;;;22.00;53.80;;;;;;5098961;28;20407;-81
2022/02/24 06:51:51;;;;;;;1.33;1.20;;;22.00;53.80;;;;;;5099738;28;20427;-82
2022/02/24 06:54:18;;;;;;;1.40;1.20;;;22.00;53.80;;;;;;5116062;28;20436;-81
2022/02/24 06:56:44;;;;;;;3.70;1.17;;;22.00;53.80;;;;;;5114910;28;20458;-81
2022/02/24 06:59:18;;;;;;;2.30;1.00;;;22.00;53.80;;;;;;5081934;28;20449;-81
2022/02/24 07:01:44;;;;;;;1.10;0.90;;;22.00;53.80;;;;;;5098730;28;20411;-81
2022/02/24 07:04:10;;;;;;;1.53;1.10;;;22.00;53.80;;;;;;5115893;28;20428;-81
2022/02/24 07:06:36;;;;;;;2.13;1.23;;;22.00;53.80;;;;;;5098507;28;20430;-81
2022/02/24 07:11:57;;;;;;;1.17;0.93;;;22.00;53.80;;;;;;5116141;28;20386;-80
2022/02/24 07:14:31;;;;;;;1.80;1.10;;;22.00;53.80;;;;;;5097954;28;20404;-80
2022/02/24 07:17:06;;;;;;;1.50;1.40;;;22.00;53.80;;;;;;5082590;28;20462;-80
2022/02/24 07:19:33;;;;;;;1.50;1.00;;;22.00;53.80;;;;;;5098310;28;20426;-80
2022/02/24 07:21:59;;;;;;;1.63;1.03;;;22.00;53.90;;;;;;5098210;28;20423;-80
2022/02/24 07:24:38;;;;;;;1.10;1.00;;;22.00;53.90;;;;;;5099584;28;20479;-80
2022/02/24 07:27:07;;;;;;;1.70;1.20;;;22.00;53.90;;;;;;5112956;28;20437;-81
2022/02/24 07:29:33;;;;;;;2.23;1.00;;;22.00;53.80;;;;;;5098911;28;20411;-81
2022/02/24 07:32:06;;;;;;;1.40;1.10;;;22.00;53.90;;;;;;5117223;28;20439;-81
2022/02/24 07:34:35;;;;;;;1.53;1.00;;;22.00;53.90;;;;;;5097790;28;20415;-81
2022/02/24 07:37:04;;;;;;;1.87;1.30;;;22.00;53.90;;;;;;5110834;28;20448;-81
2022/02/24 07:39:36;;;;;;;2.17;1.20;;;22.00;53.80;;;;;;5095255;28;20413;-81
2022/02/24 07:42:03;;;;;;;1.47;1.00;;;22.00;54.40;;;;;;5080929;28;20392;-81
2022/02/24 07:44:32;;;;;;;1.43;1.20;;;22.00;53.90;;;;;;5104235;28;20412;-81
2022/02/24 07:47:05;;;;;;;2.23;1.30;;;22.00;53.90;;;;;;5109261;28;20419;-81
2022/02/24 07:49:47;;;;;;;2.07;1.40;;;22.00;53.90;;;;;;5098286;28;20403;-81
2022/02/24 07:52:19;;;;;;;3.10;1.20;;;22.00;53.90;;;;;;5115373;28;20388;-81
2022/02/24 07:54:48;;;;;;;1.40;1.10;;;22.00;53.90;;;;;;5097421;28;20443;-81
2022/02/24 07:57:15;;;;;;;1.20;1.00;;;22.00;53.90;;;;;;5108307;28;20460;-81
2022/02/24 07:59:43;;;;;;;1.30;0.90;;;22.00;53.80;;;;;;5080819;28;20427;-81
2022/02/24 08:02:09;;;;;;;1.50;1.00;;;22.00;53.90;;;;;;5115646;28;20396;-81
2022/02/24 08:04:38;;;;;;;1.53;1.20;;;22.00;53.80;;;;;;5090040;28;20452;-81
2022/02/24 08:07:42;;;;;;;1.50;1.10;;;22.00;53.80;;;;;;5115483;28;20400;-81
2022/02/24 08:10:22;;;;;;;1.20;1.10;;;22.00;53.80;;;;;;5114595;28;20418;-80
2022/02/24 08:13:02;;;;;;;2.50;1.07;;;22.00;53.90;;;;;;5114900;28;20414;-81
2022/02/24 08:15:28;;;;;;;1.60;1.00;;;22.00;53.90;;;;;;5027036;28;20977;-81
2022/02/24 08:17:54;;;;;;;1.67;1.23;;;22.00;53.90;;;;;;5080768;28;20470;-81
2022/02/24 08:20:23;;;;;;;1.23;0.90;;;22.00;53.90;;;;;;5098262;28;20407;-81
2022/02/24 08:22:53;;;;;;;1.10;0.90;;;22.00;53.90;;;;;;5063202;28;20476;-80
2022/02/24 08:25:25;;;;;;;1.47;1.23;;;22.00;53.90;;;;;;5059743;28;20417;-80
2022/02/24 08:28:02;;;;;;;1.30;1.00;;;22.00;53.50;;;;;;5084308;28;20427;-82
2022/02/24 08:30:28;;;;;;;2.00;1.07;;;22.00;53.90;;;;;;5081288;28;20420;-81
2022/02/24 08:33:00;;;;;;;1.23;1.00;;;22.00;53.90;;;;;;5114709;28;20411;-81
2022/02/24 08:35:28;;;;;;;2.00;1.10;;;22.00;53.90;;;;;;5098535;28;20415;-81
2022/02/24 08:37:55;;;;;;;1.40;1.00;;;22.00;54.00;;;;;;5098305;28;20442;-81
2022/02/24 08:40:24;;;;;;;1.30;1.20;;;22.00;54.00;;;;;;5114940;28;20404;-81
2022/02/24 08:42:51;;;;;;;1.23;1.10;;;22.00;54.00;;;;;;5091064;28;20416;-81
2022/02/24 08:45:26;;;;;;;1.30;1.10;;;22.00;54.00;;;;;;5111749;28;20414;-81
2022/02/24 08:47:58;;;;;;;2.30;1.37;;;22.00;54.00;;;;;;5079841;28;20415;-81
2022/02/24 08:50:28;;;;;;;1.20;1.10;;;22.00;54.00;;;;;;5112572;28;20442;-81
2022/02/24 08:52:56;;;;;;;1.70;1.27;;;22.00;54.00;;;;;;5097712;28;20427;-81
2022/02/24 08:55:22;;;;;;;1.10;0.80;;;22.00;54.00;;;;;;5100954;28;20396;-81
2022/02/24 08:57:50;;;;;;;1.60;1.50;;;22.00;54.00;;;;;;5100018;28;20475;-81
2022/02/24 09:00:18;;;;;;;1.07;0.90;;;22.00;54.00;;;;;;5101274;28;20419;-81
2022/02/24 09:02:48;;;;;;;1.13;1.00;;;22.00;54.00;;;;;;5116708;28;20432;-81
2022/02/24 09:05:15;;;;;;;0.90;0.80;;;22.00;54.00;;;;;;5100073;28;20431;-81
2022/02/24 09:07:45;;;;;;;1.23;1.00;;;22.00;54.00;;;;;;5100869;28;20416;-81
2022/02/24 09:10:17;;;;;;;1.80;1.10;;;22.00;54.00;;;;;;5100624;28;20752;-81
2022/02/24 09:12:44;;;;;;;1.27;1.00;;;22.00;54.00;;;;;;5101010;28;20468;-81
2022/02/24 09:15:10;;;;;;;1.30;0.90;;;22.00;54.00;;;;;;5101174;28;20420;-81
2022/02/24 09:17:52;;;;;;;0.90;0.70;;;22.00;54.00;;;;;;5101111;28;20459;-81
2022/02/24 09:20:21;;;;;;;1.40;1.00;;;22.00;54.00;;;;;;5119718;28;20764;-83
2022/02/24 09:26:10;;;;;;;1.80;1.00;;;22.00;54.00;;;;;;5116191;28;20391;-82
2022/02/24 09:28:38;;;;;;;2.43;1.20;;;22.00;54.00;;;;;;5100827;28;20407;-83
2022/02/24 09:31:06;;;;;;;1.50;1.00;;;22.00;54.10;;;;;;5069315;28;20408;-82
2022/02/24 09:33:32;;;;;;;1.37;0.90;;;22.00;54.10;;;;;;5081160;28;20803;-83
2022/02/24 09:36:14;;;;;;;1.10;0.97;;;22.00;54.10;;;;;;5096380;28;20535;-82
2022/02/24 09:38:46;;;;;;;1.57;1.07;;;22.00;54.10;;;;;;5110003;28;20415;-82
2022/02/24 09:41:19;;;;;;;1.77;0.97;;;22.00;54.10;;;;;;5117100;28;20423;-82
2022/02/24 09:43:50;;;;;;;1.50;0.97;;;22.00;54.00;;;;;;5081013;28;20519;-81
2022/02/24 09:46:17;;;;;;;2.03;1.30;;;22.00;54.00;;;;;;5098021;28;20401;-81
2022/02/24 09:48:45;;;;;;;4.50;1.23;;;22.00;54.00;;;;;;5080046;28;20479;-82
2022/02/24 09:51:15;;;;;;;2.40;1.20;;;22.00;54.00;;;;;;5099663;28;20403;-82
2022/02/24 09:53:46;;;;;;;2.90;1.50;;;22.00;54.00;;;;;;5096456;28;20451;-81
2022/02/24 09:56:17;;;;;;;1.40;1.07;;;22.00;54.10;;;;;;5084355;28;20463;-82
2022/02/24 09:58:52;;;;;;;1.93;1.13;;;22.00;54.00;;;;;;5118221;28;20396;-82
2022/02/24 10:01:29;;;;;;;1.60;1.10;;;22.10;54.10;;;;;;5116865;28;20404;-82
2022/02/24 10:03:57;;;;;;;1.20;0.90;;;22.00;54.00;;;;;;5100137;28;20787;-82
2022/02/24 10:06:35;;;;;;;1.30;1.10;;;22.00;54.00;;;;;;5100521;28;20535;-82
2022/02/24 10:09:11;;;;;;;1.20;0.90;;;22.10;54.10;;;;;;5100377;28;20483;-82
2022/02/24 10:11:41;;;;;;;1.33;1.10;;;22.00;54.10;;;;;;5118420;28;20384;-82
2022/02/24 10:14:30;;;;;;;1.20;1.03;;;22.00;54.00;;;;;;5116862;28;20415;-82
2022/02/24 10:17:05;;;;;;;1.33;1.13;;;22.10;54.10;;;;;;5016529;28;20479;-82
2022/02/24 10:19:43;;;;;;;1.67;1.07;;;22.10;54.20;;;;;;4999973;28;20421;-82
2022/02/24 10:22:31;;;;;;;1.87;0.90;;;22.10;54.20;;;;;;4999671;28;20421;-82
2022/02/24 10:25:15;;;;;;;1.30;0.93;;;22.10;54.20;;;;;;5016714;28;20442;-82
2022/02/24 10:27:44;;;;;;;1.30;0.93;;;22.10;54.10;;;;;;5000469;28;21025;-82
2022/02/24 10:30:16;;;;;;;1.27;1.07;;;22.10;54.20;;;;;;5000055;28;20447;-82
2022/02/24 10:33:00;;;;;;;2.30;1.27;;;22.10;54.10;;;;;;5010311;28;20416;-81
2022/02/24 10:35:39;;;;;;;1.10;0.97;;;22.10;54.10;;;;;;5021398;28;20412;-82
2022/02/24 10:38:10;;;;;;;1.87;1.00;;;22.10;54.10;;;;;;5036054;28;20388;-82
2022/02/24 10:40:47;;;;;;;2.63;1.20;;;22.10;54.10;;;;;;4999635;28;20461;-82
2022/02/24 10:43:26;;;;;;;1.80;1.00;;;22.10;54.10;;;;;;5009313;28;20436;-82
2022/02/24 10:46:17;;;;;;;1.17;0.90;;;22.10;54.10;;;;;;4999502;28;20419;-82
2022/02/24 10:49:02;;;;;;;1.47;1.10;;;22.10;54.10;;;;;;5015300;28;20583;-82
2022/02/24 10:51:31;;;;;;;1.20;0.80;;;22.10;54.10;;;;;;4999551;28;20835;-82
2022/02/24 10:54:07;;;;;;;1.07;0.90;;;22.10;54.10;;;;;;5062975;28;20405;-83
2022/02/24 10:56:39;;;;;;;1.30;1.00;;;22.10;54.10;;;;;;5116558;28;20439;-83
2022/02/24 10:59:05;;;;;;;2.07;1.20;;;22.10;54.10;;;;;;5098385;28;20434;-82
2022/02/24 11:01:35;;;;;;;1.20;1.00;;;22.10;54.10;;;;;;5116262;28;20397;-82
2022/02/24 11:04:08;;;;;;;1.33;0.93;;;22.10;54.00;;;;;;5082381;28;20446;-83
2022/02/24 11:06:39;;;;;;;1.40;1.10;;;22.10;54.00;;;;;;5110151;28;20415;-82
2022/02/24 11:09:07;;;;;;;1.30;1.20;;;22.10;54.00;;;;;;5098269;28;20411;-82
2022/02/24 11:11:37;;;;;;;1.30;1.10;;;22.10;54.00;;;;;;5116220;28;20408;-82
2022/02/24 11:14:10;;;;;;;1.30;1.07;;;22.10;54.00;;;;;;5115820;28;20411;-82
2022/02/24 11:16:38;;;;;;;1.47;1.20;;;22.10;54.00;;;;;;5098085;28;20520;-82
2022/02/24 11:19:08;;;;;;;2.03;1.57;;;22.10;54.00;;;;;;5116598;28;20487;-82
2022/02/24 11:21:35;;;;;;;2.93;2.40;;;22.10;54.00;;;;;;5097881;28;20494;-82
2022/02/24 11:24:08;;;;;;;6.00;2.67;;;22.10;54.00;;;;;;5081829;28;20412;-82
2022/02/24 11:26:58;;;;;;;5.57;2.90;;;22.10;54.00;;;;;;5082687;28;20383;-82
2022/02/24 11:29:37;;;;;;;5.60;4.40;;;22.10;54.10;;;;;;5033533;28;20411;-82
2022/02/24 11:32:15;;;;;;;5.50;4.00;;;22.10;54.00;;;;;;5011561;28;20491;-82
2022/02/24 11:35:07;;;;;;;4.33;3.93;;;22.10;54.10;;;;;;4982015;28;20440;-82
2022/02/24 11:37:41;;;;;;;5.20;3.43;;;22.10;54.10;;;;;;5016266;28;20516;-82
2022/02/24 11:40:14;;;;;;;4.53;3.73;;;22.10;54.10;;;;;;5028068;28;20396;-82
2022/02/24 11:42:42;;;;;;;4.73;3.40;;;22.10;54.20;;;;;;5016849;28;20472;-82
2022/02/24 11:45:25;;;;;;;6.10;3.83;;;22.10;54.10;;;;;;5013930;28;20408;-82
2022/02/24 11:48:30;;;;;;;4.30;3.37;;;22.10;54.20;;;;;;5025833;28;20412;-82
2022/02/24 11:55:02;;;;;;;5.77;4.07;;;22.10;54.20;;;;;;4975308;29;20413;-82
2022/02/24 11:57:52;;;;;;;4.63;3.43;;;22.10;54.20;;;;;;4974858;29;20473;-82
2022/02/24 12:00:22;;;;;;;7.70;5.33;;;22.10;54.20;;;;;;4971365;29;20431;-82
2022/02/24 12:02:51;;;;;;;7.30;4.23;;;22.10;54.20;;;;;;4974758;29;20436;-82
2022/02/24 12:05:43;;;;;;;7.33;4.53;;;22.10;54.30;;;;;;4967105;28;20479;-82
2022/02/24 12:11:46;;;;;;;6.50;3.97;;;22.10;54.20;;;;;;5019990;28;20420;-82
2022/02/24 12:15:01;;;;;;;8.33;4.13;;;22.10;54.20;;;;;;5003505;28;20523;-82
2022/02/24 12:18:07;;;;;;;4.07;3.57;;;22.10;54.30;;;;;;5014332;28;20484;-81
2022/02/24 12:20:36;;;;;;;6.33;3.57;;;22.10;54.30;;;;;;5011963;28;20427;-85
2022/02/24 12:23:27;;;;;;;7.73;4.30;;;22.10;54.30;;;;;;5030540;28;20419;-82
2022/02/24 12:29:45;;;;;;;7.40;4.10;;;22.10;54.30;;;;;;5033472;28;20555;-82
2022/02/24 12:32:19;;;;;;;6.47;3.27;;;22.10;54.30;;;;;;5111857;28;20396;-82
2022/02/24 12:34:52;;;;;;;7.47;3.80;;;22.10;54.30;;;;;;5097778;28;20422;-82
2022/02/24 12:37:33;;;;;;;7.53;3.77;;;22.10;54.20;;;;;;5115295;28;20428;-82
2022/02/24 12:40:05;;;;;;;7.33;3.87;;;22.10;54.20;;;;;;5094686;28;20411;-82
2022/02/24 12:42:31;;;;;;;5.60;3.53;;;22.10;54.20;;;;;;5081373;28;20434;-82
2022/02/24 12:45:02;;;;;;;6.40;3.07;;;22.10;54.20;;;;;;5115717;28;20433;-82
2022/02/24 12:47:33;;;;;;;8.87;3.40;;;22.10;54.20;;;;;;5081401;28;20438;-82
2022/02/24 12:50:06;;;;;;;6.30;3.90;;;22.10;54.20;;;;;;5097822;28;20427;-82
2022/02/24 12:52:39;;;;;;;6.00;3.03;;;22.10;54.20;;;;;;5095987;28;20488;-82
2022/02/24 12:55:15;;;;;;;6.73;3.83;;;22.10;54.20;;;;;;5097701;28;20442;-82
2022/02/24 12:57:56;;;;;;;3.93;2.80;;;22.10;54.30;;;;;;5078318;28;20541;-82
2022/02/24 13:00:43;;;;;;;5.07;3.23;;;22.10;54.30;;;;;;5094960;28;20389;-82
2022/02/24 13:03:14;;;;;;;6.40;3.30;;;22.10;54.30;;;;;;5096987;28;20422;-82
2022/02/24 13:12:03;;;;;;;3.67;3.37;;;22.10;54.30;;;;;;5108099;28;20394;-82
2022/02/24 13:14:30;;;;;;;3.47;2.80;;;22.10;54.40;;;;;;5097556;28;20399;-82
2022/02/24 13:16:59;;;;;;;6.60;2.80;;;22.10;54.40;;;;;;5097194;28;20467;-82
2022/02/24 13:19:44;;;;;;;3.60;2.60;;;22.10;54.40;;;;;;5097458;28;20415;-82
2022/02/24 13:22:20;;;;;;;5.57;2.60;;;22.10;54.30;;;;;;5111199;28;20420;-82
2022/02/24 13:24:50;;;;;;;5.63;3.57;;;22.10;54.30;;;;;;5115146;28;20363;-82
2022/02/24 13:27:24;;;;;;;3.47;2.67;;;22.10;54.30;;;;;;5115153;28;20384;-82
2022/02/24 13:29:59;;;;;;;3.80;2.57;;;22.10;54.40;;;;;;5081674;28;20419;-82
2022/02/24 13:32:47;;;;;;;4.73;2.47;;;22.10;54.40;;;;;;5052467;28;20407;-82
2022/02/24 13:35:22;;;;;;;3.33;2.27;;;22.10;54.30;;;;;;5090354;28;20400;-82
2022/02/24 13:37:53;;;;;;;4.40;2.80;;;22.10;54.30;;;;;;5095463;28;20447;-82
2022/02/24 13:40:26;;;;;;;4.30;2.67;;;22.10;54.30;;;;;;5117905;28;20391;-82
2022/02/24 13:43:11;;;;;;;4.63;2.60;;;22.10;54.30;;;;;;5100755;28;20414;-82
2022/02/24 13:45:40;;;;;;;5.33;3.33;;;22.10;54.30;;;;;;5085016;28;20442;-82
2022/02/24 13:48:15;;;;;;;4.63;3.10;;;22.10;54.30;;;;;;5101177;28;20411;-82
2022/02/24 13:50:46;;;;;;;4.00;2.60;;;22.10;54.20;;;;;;5118394;28;20375;-82
2022/02/24 13:53:30;;;;;;;4.00;2.40;;;22.10;54.20;;;;;;5117848;28;20392;-84
2022/02/24 13:56:05;;;;;;;5.27;2.53;;;22.10;54.20;;;;;;5099906;28;20403;-82
2022/02/24 13:58:37;;;;;;;4.80;2.63;;;22.10;54.20;;;;;;5100484;28;20419;-82